• Join FlightAware (Why Join?)
  • Login
  • US Flag 
Trick or treat! (Boo!!) 
04:20AM EDT


 

Airport Tracker/Info


-or-


 

Live Flight TrackerFlight Track Log ✈ CES2652 ✈ 22-Apr-2013 ✈ ZUUU / CTU - ZHHH / WUH

Flight Track Log - Related Links

Times and Time Zones

All times are in EDT time to prevent confusion due to time zone crossing. See the CES2652 flight status page for this flight to view local times or setup timezone preferences in your user account.

Time Position Orientation Groundspeed Altitude Reporting Facility
EDT Latitude Longitude Course Direction KTS MPH feet Rate Location/Type
08:58AM 30.7940 109.7495 86° East  Level Estimated
08:59AM 30.7957 109.8732 89° East  Level Estimated
09:00AM 30.7974 109.9968 89° East  Level Estimated
09:01AM 30.7990 110.1205 89° East  Level Estimated
09:02AM 30.8004 110.2442 89° East  Level Estimated
09:03AM 30.8017 110.3679 89° East  Level Estimated
09:04AM 30.8029 110.4916 89° East  Level Estimated
09:05AM 30.8039 110.6153 89° East  Level Estimated
09:06AM 30.8049 110.7390 89° East  Level Estimated
09:07AM 30.8057 110.8627 90° East  Level Estimated
09:08AM 30.8064 110.9864 90° East  Level Estimated
09:09AM 30.8071 111.1101 90° East  Level Estimated
09:10AM 30.8075 111.2338 90° East  Level Estimated
09:11AM 30.8079 111.3576 90° East  Level Estimated
09:12AM 30.8081 111.4813 90° East  Level Estimated
09:13AM 30.8083 111.6050 90° East  Level Estimated
09:14AM 30.8083 111.7287 90° East  Level Estimated
09:15AM 30.8082 111.8524 90° East  Level Estimated
09:16AM 30.8080 111.9761 90° East  Level Estimated
09:17AM 30.8076 112.0998 90° East  Level Estimated
09:18AM 30.8072 112.2235 90° East  Level Estimated
09:19AM 30.8066 112.3472 90° East  Level Estimated
09:20AM 30.8059 112.4709 90° East  Level Estimated
09:21AM 30.8051 112.5947 90° East  Level Estimated
09:22AM 30.8042 112.7184 90° East  Level Estimated
09:23AM 30.8031 112.8420 91° East  Level Estimated
09:24AM 30.8020 112.9658 91° East  Level Estimated
09:25AM 30.8007 113.0894 91° East  Level Estimated
09:26AM 30.7993 113.2131 91° East  Level Estimated
09:27AM 30.7978 113.3368 91° East  Level Estimated
09:28AM 30.7961 113.4605 91° East  Level Estimated
09:29AM 30.7944 113.5842 91° East  Level Estimated
09:30AM 30.7925 113.7078 91° East  Level Estimated
09:31AM 30.7905 113.8315 91° East  Level Estimated
09:32AM 30.7884 113.9552 91° East  Level Estimated
09:33AM 30.7862 114.0788 91° East  Level Estimated
09:34AM 30.7839 114.2025 91° East  Level Estimated
09:35AM 30.7838 114.2081 91° East  Level Estimated
09:36AM 30.7838 114.2081 180° South  Level Estimated
09:37AM 30.7838 114.2081 180° South  Level Estimated
09:38AM 30.7838 114.2081 180° South  Level Estimated
09:39AM 30.7838 114.2081 180° South  Level Estimated
09:40AM 30.7838 114.2081 180° South  Level Estimated
09:41AM 30.7838 114.2081 180° South  Level Estimated
09:42AM 30.7838 114.2081 180° South  Level Estimated
09:43AM 30.7838 114.2081 180° South  Level Estimated
09:44AM 30.7838 114.2081 180° South  Level Estimated
09:45AM 30.7838 114.2081 180° South  Level Estimated
09:46AM 30.7838 114.2081 180° South  Level Estimated
09:47AM 30.7838 114.2081 180° South  Level Estimated
09:48AM 30.7838 114.2081 180° South  Level Estimated
09:49AM 30.7838 114.2081 180° South  Level Estimated
09:50AM 30.7838 114.2081 180° South  Level Estimated